createdAt,value
2018-01-12T00:01:08.074Z,91.50
2018-01-12T00:03:36.338Z,95.77
2018-01-12T00:06:03.821Z,92.13
2018-01-12T00:08:31.299Z,88.17
2018-01-12T00:10:58.801Z,93.97
2018-01-12T00:13:26.286Z,97.37
2018-01-12T00:15:54.529Z,103.27
2018-01-12T00:18:21.999Z,90.23
2018-01-12T00:20:49.556Z,91.97
2018-01-12T00:23:17.044Z,106.03
2018-01-12T00:25:45.334Z,108.50
2018-01-12T00:28:12.806Z,112.37
2018-01-12T00:30:40.275Z,107.40
2018-01-12T00:33:07.753Z,117.37
2018-01-12T00:35:36.722Z,124.47
2018-01-12T00:38:04.198Z,115.80
2018-01-12T00:40:31.686Z,121.47
2018-01-12T00:42:59.921Z,122.40
2018-01-12T00:45:27.381Z,128.07
2018-01-12T00:47:54.900Z,153.03
2018-01-12T00:50:22.354Z,186.87
2018-01-12T00:52:49.866Z,143.30
2018-01-12T00:55:17.337Z,154.30
2018-01-12T00:57:45.597Z,179.60
2018-01-12T01:00:13.154Z,147.60
2018-01-12T01:02:41.384Z,192.30
2018-01-12T01:05:08.873Z,151.27
2018-01-12T01:07:36.346Z,295.07
2018-01-12T01:10:03.842Z,185.70
2018-01-12T01:12:31.314Z,246.73
2018-01-12T01:14:58.805Z,169.97
2018-01-12T01:17:26.270Z,168.10
2018-01-12T01:19:53.777Z,165.10
2018-01-12T01:22:21.250Z,172.80
2018-01-12T01:24:48.732Z,187.13
2018-01-12T01:27:16.205Z,189.73
2018-01-12T01:29:44.453Z,163.90
2018-01-12T01:32:11.933Z,202.63
2018-01-12T01:34:40.166Z,163.93
2018-01-12T01:37:07.642Z,139.93
2018-01-12T01:39:35.106Z,139.43
2018-01-12T01:42:02.586Z,173.67
2018-01-12T01:44:30.838Z,226.03
2018-01-12T01:46:58.310Z,175.43
2018-01-12T01:49:26.554Z,199.57
2018-01-12T01:51:54.014Z,231.57
2018-01-12T01:54:21.502Z,205.57
2018-01-12T01:56:49.747Z,202.77
2018-01-12T01:59:17.233Z,249.37
2018-01-12T02:01:45.469Z,154.83
2018-01-12T02:04:12.952Z,132.00
2018-01-12T02:06:40.422Z,127.10
2018-01-12T02:09:08.651Z,113.13
2018-01-12T02:11:36.122Z,116.20
2018-01-12T02:14:03.610Z,125.67
2018-01-12T02:16:31.871Z,130.60
2018-01-12T02:18:59.381Z,143.10
2018-01-12T02:21:26.939Z,128.90
2018-01-12T02:23:54.398Z,156.23
2018-01-12T02:26:21.877Z,171.97
2018-01-12T02:28:49.457Z,159.47
2018-01-12T02:31:16.942Z,208.33
2018-01-12T02:33:44.424Z,185.53
2018-01-12T02:36:11.897Z,194.37
2018-01-12T02:38:39.379Z,140.83
2018-01-12T02:41:06.861Z,126.70
2018-01-12T02:43:35.090Z,151.53
2018-01-12T02:46:02.579Z,133.03
2018-01-12T02:48:30.042Z,170.40
2018-01-12T02:50:58.280Z,165.27
2018-01-12T02:53:25.764Z,156.47
2018-01-12T02:55:53.224Z,148.27
2018-01-12T02:58:20.697Z,161.93
2018-01-12T03:00:48.930Z,188.77
2018-01-12T03:03:16.418Z,152.47
2018-01-12T03:05:43.897Z,149.00
2018-01-12T03:08:11.379Z,130.20
2018-01-12T03:10:38.837Z,135.77
2018-01-12T03:13:07.182Z,144.80
2018-01-12T03:15:34.650Z,133.63
2018-01-12T03:18:02.220Z,144.93
2018-01-12T03:20:29.697Z,128.17
2018-01-12T03:22:57.162Z,117.33
2018-01-12T03:25:24.644Z,108.07
2018-01-12T03:27:52.882Z,107.03
2018-01-12T03:30:20.373Z,105.23
2018-01-12T03:32:47.839Z,121.87
2018-01-12T03:35:15.333Z,111.27
2018-01-12T03:37:42.798Z,117.50
2018-01-12T03:40:10.257Z,126.73
2018-01-12T03:42:37.742Z,108.63
2018-01-12T03:45:05.210Z,105.17
2018-01-12T03:47:32.686Z,119.47
2018-01-12T03:50:00.937Z,124.67
2018-01-12T03:52:28.398Z,119.03
2018-01-12T03:54:55.882Z,118.40
2018-01-12T03:57:23.344Z,130.63
2018-01-12T03:59:50.825Z,123.47
2018-01-12T04:02:18.295Z,116.33
2018-01-12T04:04:45.753Z,123.77
2018-01-12T04:07:13.241Z,126.43
2018-01-12T04:09:40.749Z,131.73
2018-01-12T04:12:08.225Z,116.90
2018-01-12T04:14:35.705Z,129.80
2018-01-12T04:17:03.185Z,133.97
2018-01-12T04:19:31.413Z,133.90
2018-01-12T04:21:58.898Z,139.57
2018-01-12T04:24:26.385Z,131.70
2018-01-12T04:26:53.854Z,122.23
2018-01-12T04:29:21.365Z,116.33
2018-01-12T04:31:48.843Z,133.23
2018-01-12T04:34:17.073Z,124.77
2018-01-12T04:36:44.558Z,118.63
2018-01-12T04:39:12.035Z,109.10
2018-01-12T04:41:40.267Z,112.17
2018-01-12T04:44:07.730Z,120.50
2018-01-12T04:46:35.213Z,110.83
2018-01-12T04:49:03.561Z,95.60
2018-01-12T04:51:31.053Z,111.37
2018-01-12T04:53:59.291Z,103.00
2018-01-12T04:56:26.775Z,105.03
2018-01-12T04:58:55.016Z,105.27
2018-01-12T05:01:22.483Z,102.63
2018-01-12T05:03:49.976Z,108.60
2018-01-12T05:06:18.210Z,109.90
2018-01-12T05:08:45.695Z,109.23
2018-01-12T05:11:13.938Z,113.77
2018-01-12T05:13:41.423Z,103.70
2018-01-12T05:16:09.663Z,108.17
2018-01-12T05:18:37.155Z,106.97
2018-01-12T05:21:04.616Z,99.90
2018-01-12T05:23:32.855Z,108.23
2018-01-12T05:26:00.336Z,104.40
2018-01-12T05:28:27.886Z,104.57
2018-01-12T05:30:55.377Z,101.53
2018-01-12T05:33:22.850Z,108.00
2018-01-12T05:35:50.330Z,101.00
2018-01-12T05:38:17.814Z,125.50
2018-01-12T05:40:45.278Z,136.80
2018-01-12T05:43:13.519Z,128.00
2018-01-12T05:45:41.010Z,146.53
2018-01-12T05:48:08.474Z,141.50
2018-01-12T05:50:36.741Z,143.27
2018-01-12T05:53:04.310Z,157.77
2018-01-12T05:55:32.553Z,149.30
2018-01-12T05:58:00.050Z,147.07
2018-01-12T06:00:28.283Z,156.67
2018-01-12T06:03:07.642Z,143.80
2018-01-12T06:05:46.995Z,133.17
2018-01-12T06:08:15.362Z,131.63
2018-01-12T06:10:43.606Z,134.17
2018-01-12T06:13:11.093Z,152.63
2018-01-12T06:15:39.341Z,173.83
2018-01-12T06:18:06.812Z,198.77
2018-01-12T06:20:34.286Z,148.97
2018-01-12T06:23:02.522Z,158.77
2018-01-12T06:25:30.003Z,182.83
2018-01-12T06:27:57.512Z,165.33
2018-01-12T06:30:25.019Z,159.03
2018-01-12T06:32:52.527Z,166.13
2018-01-12T06:35:20.034Z,151.03
2018-01-12T06:37:47.511Z,125.80
2018-01-12T06:40:15.757Z,144.30
2018-01-12T06:42:43.238Z,145.87
2018-01-12T06:45:11.485Z,146.17
2018-01-12T06:47:38.990Z,157.63
2018-01-12T06:50:06.451Z,151.90
2018-01-12T06:52:33.926Z,163.53
2018-01-12T06:55:01.391Z,139.33
2018-01-12T06:57:28.871Z,139.63
2018-01-12T06:59:56.353Z,142.03
2018-01-12T07:02:24.598Z,150.47
2018-01-12T07:04:52.825Z,144.40
2018-01-12T07:07:20.294Z,135.23
2018-01-12T07:09:47.779Z,132.80
2018-01-12T07:12:15.257Z,146.00
2018-01-12T07:14:42.723Z,155.03
2018-01-12T07:17:10.966Z,173.93
2018-01-12T07:19:38.455Z,186.30
2018-01-12T07:22:18.531Z,191.83
2018-01-12T07:24:46.011Z,181.40
2018-01-12T07:27:13.479Z,172.37
2018-01-12T07:29:40.945Z,181.13
2018-01-12T07:32:08.434Z,189.83
2018-01-12T07:34:36.674Z,187.80
2018-01-12T07:37:04.162Z,193.63
2018-01-12T07:39:32.421Z,190.83
2018-01-12T07:41:59.893Z,176.83
2018-01-12T07:44:27.355Z,161.90
2018-01-12T07:46:56.318Z,159.70
2018-01-12T07:49:23.782Z,180.07
2018-01-12T07:51:51.245Z,173.40
2018-01-12T07:54:18.726Z,161.90
2018-01-12T07:56:46.975Z,144.93
2018-01-12T07:59:14.450Z,145.07
2018-01-12T08:01:48.382Z,137.90
2018-01-12T08:04:15.869Z,157.13
2018-01-12T08:06:43.330Z,156.33
2018-01-12T08:09:10.817Z,158.40
2018-01-12T08:11:39.050Z,157.27
2018-01-12T08:14:06.534Z,134.30
2018-01-12T08:16:33.997Z,150.90
2018-01-12T08:19:01.461Z,143.97
2018-01-12T08:21:29.709Z,150.13
2018-01-12T08:23:57.226Z,137.97
2018-01-12T08:26:24.691Z,150.83
2018-01-12T08:28:52.162Z,140.87
2018-01-12T08:31:19.646Z,141.40
2018-01-12T08:33:47.102Z,137.43
2018-01-12T08:36:14.578Z,123.27
2018-01-12T08:38:42.809Z,138.13
2018-01-12T08:41:10.275Z,127.43
2018-01-12T08:43:37.755Z,139.57
2018-01-12T08:46:05.226Z,152.37
2018-01-12T08:48:33.483Z,126.10
2018-01-12T08:51:00.951Z,128.27
2018-01-12T08:53:28.454Z,124.47
2018-01-12T08:55:55.924Z,127.00
2018-01-12T08:58:23.395Z,96.30
2018-01-12T09:00:50.926Z,105.87
2018-01-12T09:03:18.382Z,104.23
2018-01-12T09:05:45.862Z,96.57
2018-01-12T09:08:13.397Z,93.53
2018-01-12T09:10:40.869Z,103.97
2018-01-12T09:13:20.387Z,123.33
2018-01-12T09:15:47.905Z,118.77
2018-01-12T09:18:35.090Z,101.57
2018-01-12T09:21:14.626Z,104.10
2018-01-12T09:23:42.093Z,92.00
2018-01-12T09:26:09.574Z,97.77
2018-01-12T09:28:37.141Z,98.87
2018-01-12T09:31:05.369Z,96.30
2018-01-12T09:33:32.839Z,97.43
2018-01-12T09:36:00.306Z,108.90
2018-01-12T09:41:31.237Z,101.20
2018-01-12T09:43:58.726Z,108.70
2018-01-12T09:46:26.206Z,123.47
2018-01-12T09:48:54.433Z,135.73
2018-01-12T09:51:21.899Z,128.33
2018-01-12T09:53:49.393Z,139.63
2018-01-12T09:56:17.647Z,132.10
2018-01-12T09:58:46.634Z,124.20
2018-01-12T10:01:25.082Z,112.93
2018-01-12T10:03:52.565Z,129.57
2018-01-12T10:06:20.061Z,135.27
2018-01-12T10:08:47.512Z,129.93
2018-01-12T10:11:15.006Z,127.30
2018-01-12T10:13:43.229Z,128.67
2018-01-12T10:16:10.705Z,143.83
2018-01-12T10:18:42.039Z,145.33
2018-01-12T10:21:21.434Z,131.53
2018-01-12T10:23:48.889Z,148.60
2018-01-12T10:26:16.382Z,148.23
2018-01-12T10:28:55.685Z,153.43
2018-01-12T10:31:33.105Z,156.80
2018-01-12T10:34:08.377Z,166.80
2018-01-12T10:36:36.622Z,179.93
2018-01-12T10:39:04.108Z,155.83
2018-01-12T10:41:38.237Z,156.30
2018-01-12T10:44:06.479Z,170.07
2018-01-12T10:46:45.946Z,154.00
2018-01-12T10:49:26.165Z,158.43
2018-01-12T10:52:05.749Z,140.13
2018-01-12T10:54:33.978Z,142.20
2018-01-12T10:57:01.478Z,144.57
2018-01-12T10:59:29.717Z,140.47
2018-01-12T11:01:58.693Z,144.80
2018-01-12T11:04:26.192Z,159.70
2018-01-12T11:06:54.425Z,145.60
2018-01-12T11:09:21.901Z,162.57
2018-01-12T11:11:50.873Z,155.40
2018-01-12T11:14:18.357Z,155.97
2018-01-12T11:16:45.825Z,158.97
2018-01-12T11:19:14.069Z,143.20
2018-01-12T11:21:41.545Z,142.53
2018-01-12T11:24:09.044Z,139.97
2018-01-12T11:26:36.496Z,146.87
2018-01-12T11:29:03.973Z,161.23
2018-01-12T11:31:31.433Z,153.17
2018-01-12T11:33:58.913Z,145.70
2018-01-12T11:36:26.438Z,153.30
2018-01-12T11:38:53.907Z,132.43
2018-01-12T11:41:21.371Z,120.37
2018-01-12T11:43:48.883Z,107.53
2018-01-12T11:46:17.113Z,114.87
2018-01-12T11:48:44.590Z,101.20
2018-01-12T11:51:12.077Z,104.07
2018-01-12T11:53:39.562Z,103.10
2018-01-12T11:56:07.051Z,101.53
2018-01-12T11:58:34.525Z,96.00
2018-01-12T12:01:02.754Z,97.17
2018-01-12T12:03:30.226Z,109.33
2018-01-12T12:05:57.690Z,99.00
2018-01-12T12:08:25.947Z,97.07
2018-01-12T12:10:53.430Z,104.30
2018-01-12T12:13:20.889Z,113.77
2018-01-12T12:15:48.369Z,116.73
2018-01-12T12:18:15.837Z,120.00
2018-01-12T12:20:43.314Z,117.57
2018-01-12T12:23:10.810Z,117.47
2018-01-12T12:25:38.278Z,127.87
2018-01-12T12:28:06.529Z,119.40
2018-01-12T12:30:34.004Z,121.30
2018-01-12T12:33:01.490Z,101.10
2018-01-12T12:35:28.958Z,166.93
2018-01-12T12:37:56.539Z,123.77
2018-01-12T12:40:24.018Z,102.00
2018-01-12T12:42:51.498Z,103.97
2018-01-12T12:45:18.962Z,105.00
2018-01-12T12:47:47.202Z,109.83
2018-01-12T12:50:14.674Z,107.93
2018-01-12T12:52:42.147Z,110.70
2018-01-12T12:55:10.390Z,101.23
2018-01-12T12:57:37.869Z,95.23
2018-01-12T13:00:05.342Z,91.70
2018-01-12T13:02:33.585Z,92.30
2018-01-12T13:05:01.066Z,92.70
2018-01-12T13:07:29.298Z,95.53
2018-01-12T13:09:56.789Z,100.30
2018-01-12T13:12:25.017Z,90.00
2018-01-12T13:14:52.477Z,97.67
2018-01-12T13:17:19.969Z,92.00
2018-01-12T13:19:47.537Z,91.53
2018-01-12T13:22:15.861Z,95.40
2018-01-12T13:24:43.318Z,94.57
2018-01-12T13:27:10.804Z,91.60
2018-01-12T13:29:38.274Z,99.00
2018-01-12T13:32:05.750Z,84.03
2018-01-12T13:34:33.993Z,97.50
2018-01-12T13:37:01.461Z,101.83
2018-01-12T13:39:28.947Z,93.30
2018-01-12T13:41:57.173Z,100.30
2018-01-12T13:44:24.657Z,92.63
2018-01-12T13:46:53.647Z,95.63
2018-01-12T13:49:22.636Z,92.70
2018-01-12T13:51:50.095Z,96.63
2018-01-12T13:54:17.561Z,97.17
2018-01-12T13:56:45.793Z,112.97
2018-01-12T13:59:13.275Z,100.87
2018-01-12T14:01:40.753Z,99.77
2018-01-12T14:04:09.011Z,105.00
2018-01-12T14:06:37.250Z,100.67
2018-01-12T14:09:04.720Z,92.97
2018-01-12T14:11:32.202Z,106.90
2018-01-12T14:14:01.181Z,106.87
2018-01-12T14:16:29.426Z,99.17
2018-01-12T14:18:56.898Z,116.43
2018-01-12T14:21:24.433Z,111.63
2018-01-12T14:23:52.622Z,103.53
2018-01-12T14:26:20.118Z,106.37
2018-01-12T14:28:48.359Z,103.37
2018-01-12T14:31:15.841Z,98.33
2018-01-12T14:33:44.078Z,103.20
2018-01-12T14:36:11.561Z,107.63
2018-01-12T14:38:39.028Z,119.77
2018-01-12T14:41:06.511Z,117.80
2018-01-12T14:43:34.737Z,113.17
2018-01-12T14:46:02.216Z,108.83
2018-01-12T14:48:29.698Z,106.03
2018-01-12T14:50:57.961Z,115.87
2018-01-12T14:53:26.201Z,114.20
2018-01-12T14:58:34.329Z,109.63
2018-01-12T15:01:01.814Z,113.40
2018-01-12T15:03:30.046Z,107.67
2018-01-12T15:05:57.530Z,104.23
2018-01-12T15:08:25.007Z,111.00
2018-01-12T15:10:53.265Z,113.17
2018-01-12T15:13:20.724Z,102.20
2018-01-12T15:15:48.962Z,119.43
2018-01-12T15:18:16.455Z,108.97
2018-01-12T15:20:43.941Z,117.27
2018-01-12T15:23:12.181Z,106.27
2018-01-12T15:25:40.422Z,108.23
2018-01-12T15:28:07.905Z,109.60
2018-01-12T15:30:35.377Z,115.80
2018-01-12T15:33:02.875Z,112.13
2018-01-12T15:35:30.373Z,113.00
2018-01-12T15:37:57.849Z,118.73
2018-01-12T15:40:25.326Z,121.67
2018-01-12T15:42:54.977Z,113.37
2018-01-12T15:45:23.753Z,107.63
2018-01-12T15:47:51.212Z,105.70
2018-01-12T15:50:19.665Z,98.30
2018-01-12T15:52:47.143Z,102.90
2018-01-12T15:55:15.557Z,97.47
2018-01-12T15:57:43.303Z,108.83
2018-01-12T16:00:10.824Z,102.90
2018-01-12T16:02:38.262Z,104.73
2018-01-12T16:05:06.567Z,108.00
2018-01-12T16:07:34.038Z,96.67
2018-01-12T16:10:01.520Z,94.97
2018-01-12T16:12:28.998Z,99.30
2018-01-12T16:14:57.394Z,90.17
2018-01-12T16:17:26.629Z,98.43
2018-01-12T16:19:54.091Z,103.80
2018-01-12T16:22:21.581Z,104.43
2018-01-12T16:24:51.954Z,110.60
2018-01-12T16:27:19.421Z,104.47
2018-01-12T16:29:46.916Z,112.13
2018-01-12T16:32:14.397Z,96.23
2018-01-12T16:34:42.647Z,88.60
2018-01-12T16:37:11.993Z,96.70
2018-01-12T16:39:39.466Z,94.20
2018-01-12T16:42:06.946Z,78.13
2018-01-12T16:44:34.419Z,96.20
2018-01-12T16:47:01.899Z,99.10
2018-01-12T16:49:32.880Z,106.57
2018-01-12T16:52:00.347Z,116.30
2018-01-12T16:54:27.814Z,111.97
2018-01-12T16:56:55.308Z,106.93
2018-01-12T16:59:23.555Z,103.03
2018-01-12T17:01:51.042Z,101.43
2018-01-12T17:04:19.860Z,102.37
2018-01-12T17:06:47.334Z,97.60
2018-01-12T17:09:15.242Z,100.50
2018-01-12T17:11:43.485Z,91.07
2018-01-12T17:14:10.975Z,100.60
2018-01-12T17:16:38.430Z,102.27
2018-01-12T17:19:06.669Z,101.03
2018-01-12T17:21:34.190Z,106.60
2018-01-12T17:24:02.614Z,107.97
2018-01-12T17:26:30.083Z,120.80
2018-01-12T17:28:58.548Z,109.47
2018-01-12T17:31:26.031Z,117.23
2018-01-12T17:33:53.509Z,117.57
2018-01-12T17:36:21.002Z,113.87
2018-01-12T17:38:48.488Z,114.53
2018-01-12T17:41:16.004Z,116.80
2018-01-12T17:43:43.478Z,125.00
2018-01-12T17:46:10.954Z,132.93
2018-01-12T17:48:39.970Z,125.13
2018-01-12T17:51:08.223Z,121.57
2018-01-12T17:53:35.707Z,122.00
2018-01-12T17:56:03.960Z,139.07
2018-01-12T17:58:31.430Z,135.30
2018-01-12T18:00:59.701Z,128.33
2018-01-12T18:03:27.190Z,133.13
2018-01-12T18:05:54.651Z,141.37
2018-01-12T18:08:22.938Z,130.97
2018-01-12T18:10:50.390Z,145.90
2018-01-12T18:13:17.866Z,130.93
2018-01-12T18:15:45.353Z,137.17
2018-01-12T18:18:12.921Z,132.90
2018-01-12T18:20:40.412Z,140.63
2018-01-12T18:23:07.881Z,130.63
2018-01-12T18:25:35.446Z,129.43
2018-01-12T18:28:02.957Z,140.60
2018-01-12T18:30:30.413Z,142.17
2018-01-12T18:32:58.670Z,134.03
2018-01-12T18:35:26.162Z,131.80
2018-01-12T18:37:54.409Z,162.30
2018-01-12T18:40:21.881Z,148.60
2018-01-12T18:42:50.156Z,153.80
2018-01-12T18:45:17.605Z,146.43
2018-01-12T18:47:45.104Z,151.67
2018-01-12T18:50:13.493Z,146.40
2018-01-12T18:52:40.965Z,130.93
2018-01-12T18:55:08.457Z,136.70
2018-01-12T18:57:36.702Z,128.77
2018-01-12T19:00:04.228Z,127.20
2018-01-12T19:02:31.711Z,129.37
2018-01-12T19:04:59.177Z,124.03
2018-01-12T19:07:26.696Z,133.53
2018-01-12T19:09:54.171Z,138.97
2018-01-12T19:12:21.634Z,125.17
2018-01-12T19:14:49.131Z,127.70
2018-01-12T19:17:16.615Z,115.67
2018-01-12T19:19:44.106Z,116.27
2018-01-12T19:22:11.586Z,127.90
2018-01-12T19:24:39.065Z,120.40
2018-01-12T19:27:07.299Z,199.40
2018-01-12T19:29:34.827Z,209.10
2018-01-12T19:32:02.285Z,203.40
2018-01-12T19:34:29.754Z,207.73
2018-01-12T19:36:57.251Z,210.90
2018-01-12T19:39:24.706Z,196.37
2018-01-12T19:41:52.219Z,206.70
2018-01-12T19:44:19.694Z,212.23
2018-01-12T19:46:47.197Z,206.53
2018-01-12T19:49:15.445Z,170.10
2018-01-12T19:51:42.954Z,159.70
2018-01-12T19:54:10.438Z,150.27
2018-01-12T19:56:37.974Z,162.97
2018-01-12T19:59:05.443Z,155.57
2018-01-12T20:01:32.926Z,195.87
2018-01-12T20:04:00.453Z,178.83
2018-01-12T20:06:28.698Z,177.30
2018-01-12T20:08:59.118Z,177.00
2018-01-12T20:11:28.318Z,164.67
2018-01-12T20:13:56.546Z,163.33
2018-01-12T20:16:24.643Z,169.20
2018-01-12T20:18:53.094Z,207.73
2018-01-12T20:21:22.689Z,190.77
2018-01-12T20:23:50.178Z,188.67
2018-01-12T20:26:17.657Z,190.17
2018-01-12T20:28:46.723Z,185.10
2018-01-12T20:31:14.177Z,192.50
2018-01-12T20:33:41.657Z,219.00
2018-01-12T20:36:09.895Z,219.00
2018-01-12T20:38:38.238Z,211.83
2018-01-12T20:41:06.914Z,201.00
2018-01-12T20:43:34.398Z,207.13
2018-01-12T20:46:04.621Z,213.33
2018-01-12T20:48:32.589Z,212.23
2018-01-12T20:51:00.338Z,204.47
2018-01-12T20:53:28.970Z,187.97
2018-01-12T20:55:56.489Z,186.53
2018-01-12T20:58:23.958Z,169.67
2018-01-12T21:00:54.337Z,159.30
2018-01-12T21:03:23.182Z,172.93
2018-01-12T21:05:51.574Z,171.43
2018-01-12T21:08:19.835Z,204.27
2018-01-12T21:10:47.310Z,185.17
2018-01-12T21:13:16.140Z,182.50
2018-01-12T21:15:44.493Z,191.57
2018-01-12T21:18:13.426Z,188.20
2018-01-12T21:20:40.905Z,202.73
2018-01-12T21:23:09.239Z,204.33
2018-01-12T21:25:36.734Z,191.47
2018-01-12T21:28:04.267Z,191.27
2018-01-12T21:30:31.745Z,187.23
2018-01-12T21:32:59.214Z,202.97
2018-01-12T21:35:26.686Z,198.10
2018-01-12T21:37:54.194Z,216.47
2018-01-12T21:40:22.175Z,203.50
2018-01-12T21:42:49.724Z,205.93
2018-01-12T21:45:17.193Z,215.30
2018-01-12T21:47:44.683Z,208.20
2018-01-12T21:50:12.152Z,210.27
2018-01-12T21:52:40.398Z,210.63
2018-01-12T21:55:07.885Z,206.53
2018-01-12T21:57:36.141Z,230.10
2018-01-12T22:00:04.034Z,224.67
2018-01-12T22:02:33.169Z,244.27
2018-01-12T22:05:01.390Z,248.47
2018-01-12T22:07:29.428Z,244.60
2018-01-12T22:09:56.905Z,256.27
2018-01-12T22:12:25.374Z,242.17
2018-01-12T22:14:53.425Z,230.83
2018-01-12T22:17:20.902Z,237.37
2018-01-12T22:19:48.830Z,237.10
2018-01-12T22:22:16.310Z,252.83
2018-01-12T22:24:44.697Z,261.23
2018-01-12T22:27:13.344Z,253.53
2018-01-12T22:29:42.227Z,242.87
2018-01-12T22:32:10.275Z,263.73
2018-01-12T22:34:38.613Z,238.80
2018-01-12T22:37:06.073Z,258.90
2018-01-12T22:39:33.574Z,252.93
2018-01-12T22:42:02.698Z,250.27
2018-01-12T22:44:30.998Z,221.57
2018-01-12T22:46:58.941Z,238.73
2018-01-12T22:49:26.395Z,252.73
2018-01-12T22:51:54.711Z,221.70
2018-01-12T22:54:23.141Z,224.80
2018-01-12T22:56:50.650Z,244.17
2018-01-12T22:59:18.480Z,232.77
2018-01-12T23:01:45.956Z,234.70
2018-01-12T23:04:14.361Z,246.53
2018-01-12T23:06:41.854Z,249.13
2018-01-12T23:09:09.382Z,202.73
2018-01-12T23:11:37.619Z,227.80
2018-01-12T23:14:05.082Z,243.73
2018-01-12T23:16:33.322Z,242.80
2018-01-12T23:19:00.794Z,264.07
2018-01-12T23:21:29.238Z,240.23
2018-01-12T23:23:57.499Z,261.47
2018-01-12T23:26:26.683Z,260.67
2018-01-12T23:28:54.153Z,243.13
2018-01-12T23:31:21.625Z,250.30
2018-01-12T23:33:51.514Z,230.10
2018-01-12T23:36:21.636Z,242.43
2018-01-12T23:38:49.850Z,260.80
2018-01-12T23:41:17.354Z,295.03
2018-01-12T23:43:47.381Z,279.30
2018-01-12T23:46:15.400Z,253.90
2018-01-12T23:48:42.873Z,268.90
2018-01-12T23:51:10.351Z,266.67
2018-01-12T23:53:37.838Z,264.10
2018-01-12T23:56:06.147Z,298.13
2018-01-12T23:58:33.603Z,259.37
